Time;durP1;ratioP1;P1;durP2;ratioP2;P2;SDS_P1;SDS_P2;PMS_P1;PMS_P2;Temp;Humidity;BMP_temperature;BMP_pressure;BME280_temperature;BME280_humidity;BME280_pressure;Samples;Min_cycle;Max_cycle;Signal;HPM_P1;HPM_P2
2023/11/21 00:01:54;;;;;;;3.47;1.60;;;13.20;91.40;;;;;;5035403;28;20466;-79
2023/11/21 00:04:20;;;;;;;2.67;1.50;;;13.10;91.40;;;;;;5035216;28;20029;-80
2023/11/21 00:06:47;;;;;;;3.95;1.70;;;13.20;91.40;;;;;;5036611;28;20567;-79
2023/11/21 00:09:15;;;;;;;4.50;1.80;;;13.10;91.40;;;;;;5018772;28;20021;-79
2023/11/21 00:11:41;;;;;;;4.13;1.70;;;13.20;91.40;;;;;;5019018;28;20029;-79
2023/11/21 00:14:06;;;;;;;3.80;1.80;;;13.20;91.40;;;;;;5035251;28;20075;-79
2023/11/21 00:16:32;;;;;;;2.95;1.63;;;13.20;91.40;;;;;;5018568;28;20498;-80
2023/11/21 00:18:57;;;;;;;3.50;1.63;;;13.10;91.40;;;;;;5018974;28;20558;-81
2023/11/21 00:21:23;;;;;;;3.13;1.70;;;13.10;91.40;;;;;;5018536;28;20033;-79
2023/11/21 00:23:48;;;;;;;3.20;1.58;;;13.10;91.40;;;;;;5036483;28;20026;-79
2023/11/21 00:26:14;;;;;;;2.80;1.70;;;13.20;91.40;;;;;;5034889;28;20049;-81
2023/11/21 00:28:40;;;;;;;3.88;1.70;;;13.20;91.40;;;;;;5018283;28;20139;-79
2023/11/21 00:31:05;;;;;;;3.38;1.80;;;13.10;91.40;;;;;;5018616;28;20439;-79
2023/11/21 00:33:31;;;;;;;3.22;1.73;;;13.20;91.50;;;;;;5036561;28;20025;-79
2023/11/21 00:35:57;;;;;;;3.33;1.80;;;13.20;91.40;;;;;;5034751;28;20541;-79
2023/11/21 00:38:22;;;;;;;3.00;1.67;;;13.10;91.40;;;;;;5017850;28;20021;-80
2023/11/21 00:40:48;;;;;;;2.88;1.63;;;13.10;91.40;;;;;;5018431;28;20020;-79
2023/11/21 00:43:13;;;;;;;3.28;1.75;;;13.20;91.40;;;;;;5017850;28;20116;-79
2023/11/21 00:45:40;;;;;;;3.08;1.77;;;13.10;91.40;;;;;;5017884;28;20025;-79
2023/11/21 00:48:05;;;;;;;4.25;1.80;;;13.20;91.40;;;;;;5035721;28;20392;-79
2023/11/21 00:50:31;;;;;;;3.38;1.70;;;13.10;91.40;;;;;;5035090;28;20025;-79
2023/11/21 00:52:57;;;;;;;3.10;1.88;;;13.20;91.40;;;;;;5017850;28;20553;-80
2023/11/21 00:55:22;;;;;;;3.33;1.80;;;13.20;91.40;;;;;;5034595;28;20399;-80
2023/11/21 00:57:48;;;;;;;3.30;1.80;;;13.20;91.50;;;;;;5035639;28;20052;-79
2023/11/21 01:00:16;;;;;;;3.17;1.70;;;13.10;91.40;;;;;;5018064;28;20025;-79
2023/11/21 01:02:44;;;;;;;3.15;1.67;;;13.20;91.40;;;;;;5034564;28;20037;-79
2023/11/21 01:05:10;;;;;;;3.30;1.60;;;13.10;91.40;;;;;;5034373;28;20101;-79
2023/11/21 01:07:36;;;;;;;2.35;1.50;;;13.10;91.40;;;;;;5035218;28;20025;-79
2023/11/21 01:10:05;;;;;;;4.93;2.25;;;13.20;91.40;;;;;;5034422;28;20546;-79
2023/11/21 01:12:31;;;;;;;3.15;1.55;;;13.20;91.40;;;;;;5034162;28;20529;-79
2023/11/21 01:15:00;;;;;;;3.22;1.73;;;13.20;91.40;;;;;;5035422;28;20029;-79
2023/11/21 01:17:25;;;;;;;3.20;1.77;;;13.20;91.40;;;;;;5035059;28;20075;-79
2023/11/21 01:19:51;;;;;;;3.22;1.90;;;13.10;91.40;;;;;;5035199;28;20033;-79
2023/11/21 01:22:18;;;;;;;3.08;1.58;;;13.20;91.40;;;;;;5017752;28;20112;-80
2023/11/21 01:24:43;;;;;;;3.03;1.60;;;13.10;91.40;;;;;;5017491;28;20025;-79
2023/11/21 01:27:09;;;;;;;3.95;1.85;;;13.20;91.40;;;;;;5017046;28;20049;-79
2023/11/21 01:29:35;;;;;;;3.60;1.80;;;13.20;91.50;;;;;;5034975;28;20103;-79
2023/11/21 01:32:02;;;;;;;3.95;1.90;;;13.10;91.40;;;;;;5017287;28;20171;-79
2023/11/21 01:34:28;;;;;;;2.95;1.67;;;13.20;91.40;;;;;;5033896;28;20163;-79
2023/11/21 01:36:53;;;;;;;3.00;1.70;;;13.10;91.40;;;;;;5034328;28;20108;-79
2023/11/21 01:39:23;;;;;;;4.25;1.90;;;13.20;91.40;;;;;;5016633;28;20507;-79
2023/11/21 01:41:49;;;;;;;3.92;1.90;;;13.20;91.40;;;;;;5016987;28;20029;-79
2023/11/21 01:44:16;;;;;;;3.30;1.70;;;13.10;91.40;;;;;;5034931;28;20028;-79
2023/11/21 01:46:42;;;;;;;2.90;1.55;;;13.10;91.40;;;;;;5017076;28;20029;-79
2023/11/21 01:49:10;;;;;;;3.00;1.70;;;13.10;91.40;;;;;;5034932;28;20079;-79
2023/11/21 01:51:37;;;;;;;3.75;1.75;;;13.10;91.40;;;;;;5033465;28;20029;-79
2023/11/21 01:54:04;;;;;;;3.70;2.10;;;13.20;91.40;;;;;;5033193;28;20036;-79
2023/11/21 01:56:31;;;;;;;4.28;1.90;;;13.10;91.40;;;;;;5016356;28;20025;-79
2023/11/21 01:58:57;;;;;;;3.28;1.70;;;13.20;91.40;;;;;;5016496;28;20034;-80
2023/11/21 02:01:23;;;;;;;4.28;1.90;;;13.20;91.40;;;;;;5016808;28;20516;-79
2023/11/21 02:03:48;;;;;;;3.72;1.80;;;13.10;91.40;;;;;;5016854;28;20061;-79
2023/11/21 02:06:14;;;;;;;4.40;1.80;;;13.10;91.40;;;;;;5016909;28;20030;-79
2023/11/21 02:08:42;;;;;;;3.15;1.80;;;13.20;91.40;;;;;;5034756;28;20022;-79
2023/11/21 02:11:09;;;;;;;3.50;1.63;;;13.10;91.40;;;;;;5016291;28;20025;-79
2023/11/21 02:13:34;;;;;;;2.60;1.48;;;13.20;91.70;;;;;;5032762;28;20075;-79
2023/11/21 02:16:00;;;;;;;2.50;1.60;;;13.10;91.40;;;;;;5016306;28;20021;-79
2023/11/21 02:18:28;;;;;;;3.15;1.63;;;13.20;91.40;;;;;;5016283;28;20021;-79
2023/11/21 02:20:55;;;;;;;3.35;1.77;;;13.20;91.40;;;;;;5016483;28;20021;-79
2023/11/21 02:23:21;;;;;;;3.97;1.77;;;13.10;91.40;;;;;;5032810;28;20032;-79
2023/11/21 02:25:47;;;;;;;3.58;1.83;;;13.20;91.40;;;;;;5016096;28;20029;-79
2023/11/21 02:28:15;;;;;;;2.90;1.60;;;13.20;91.70;;;;;;5015816;28;20044;-80
2023/11/21 02:30:40;;;;;;;2.90;1.77;;;13.00;91.40;;;;;;5016232;28;20095;-77
2023/11/21 02:33:07;;;;;;;2.92;1.67;;;13.20;91.40;;;;;;5016120;28;20495;-79
2023/11/21 02:35:32;;;;;;;3.65;1.90;;;13.10;91.40;;;;;;5015882;28;20664;-80
2023/11/21 02:37:58;;;;;;;3.72;1.80;;;13.20;91.40;;;;;;5015437;28;20017;-79
2023/11/21 02:40:24;;;;;;;3.85;2.00;;;13.10;91.40;;;;;;5016088;28;20025;-79
2023/11/21 02:42:50;;;;;;;2.58;1.52;;;13.10;91.40;;;;;;5033820;28;20463;-79
2023/11/21 02:45:17;;;;;;;2.80;1.65;;;13.10;91.40;;;;;;5032277;28;20025;-79
2023/11/21 02:47:43;;;;;;;3.22;1.70;;;13.10;91.40;;;;;;5032123;28;20491;-79
2023/11/21 02:50:09;;;;;;;4.07;1.83;;;13.20;91.40;;;;;;5033616;28;20064;-80
2023/11/21 02:52:39;;;;;;;3.60;1.90;;;13.10;91.40;;;;;;5015644;28;20045;-80
2023/11/21 02:55:07;;;;;;;3.83;1.73;;;13.10;91.40;;;;;;5032183;28;20410;-79
2023/11/21 02:57:33;;;;;;;3.20;1.60;;;13.20;91.50;;;;;;5032795;28;20055;-79
2023/11/21 02:59:59;;;;;;;3.17;1.60;;;13.10;91.40;;;;;;5033625;28;20029;-79
2023/11/21 03:02:25;;;;;;;3.55;1.70;;;13.20;91.50;;;;;;5032243;28;20021;-79
2023/11/21 03:04:51;;;;;;;3.53;1.60;;;13.20;91.50;;;;;;5015564;28;20507;-80
2023/11/21 03:07:19;;;;;;;2.97;1.77;;;13.10;91.40;;;;;;5015184;28;20021;-79
2023/11/21 03:09:45;;;;;;;3.10;1.63;;;13.20;91.50;;;;;;5015418;28;20057;-78
2023/11/21 03:12:12;;;;;;;3.42;1.77;;;13.20;91.50;;;;;;5015196;28;20025;-79
2023/11/21 03:14:38;;;;;;;3.15;1.67;;;13.10;91.40;;;;;;5029006;28;20032;-79
2023/11/21 03:17:04;;;;;;;3.40;1.63;;;13.10;91.50;;;;;;5015175;28;20383;-78
2023/11/21 03:19:30;;;;;;;3.30;1.70;;;13.20;91.50;;;;;;5015615;28;20030;-79
2023/11/21 03:21:56;;;;;;;3.63;1.77;;;13.20;91.40;;;;;;5033305;28;20112;-80
2023/11/21 03:24:22;;;;;;;3.25;1.70;;;13.20;91.50;;;;;;5032573;28;20076;-79
2023/11/21 03:26:48;;;;;;;3.80;1.70;;;13.20;91.50;;;;;;5015014;28;20543;-79
2023/11/21 03:29:14;;;;;;;3.00;1.80;;;13.20;91.50;;;;;;5015426;28;20064;-79
2023/11/21 03:31:40;;;;;;;2.95;1.70;;;13.20;91.40;;;;;;5015325;28;20028;-80
2023/11/21 03:34:06;;;;;;;3.67;1.90;;;13.10;91.40;;;;;;5033046;28;20037;-79
2023/11/21 03:36:31;;;;;;;3.78;1.85;;;13.10;91.40;;;;;;5014894;28;20079;-79
2023/11/21 03:38:57;;;;;;;4.32;1.85;;;13.10;91.40;;;;;;5015142;28;20025;-79
2023/11/21 03:41:22;;;;;;;3.03;1.70;;;13.20;91.40;;;;;;5032976;28;20047;-79
2023/11/21 03:43:48;;;;;;;4.13;1.85;;;13.10;91.40;;;;;;5014968;28;20514;-79
2023/11/21 03:46:14;;;;;;;3.13;1.73;;;13.10;91.40;;;;;;5015270;28;20065;-79
2023/11/21 03:48:40;;;;;;;3.03;1.70;;;13.20;91.40;;;;;;5014791;28;20025;-80
2023/11/21 03:51:05;;;;;;;3.42;1.80;;;13.10;91.50;;;;;;5015248;28;20025;-80
2023/11/21 03:53:31;;;;;;;3.85;1.80;;;13.20;91.50;;;;;;5014967;28;20033;-79
2023/11/21 03:55:57;;;;;;;3.75;1.70;;;13.10;91.40;;;;;;5014951;28;20022;-79
2023/11/21 03:58:23;;;;;;;3.58;1.90;;;13.10;91.40;;;;;;5014842;28;20021;-80
2023/11/21 04:00:49;;;;;;;3.53;1.80;;;13.20;91.50;;;;;;5014946;28;20021;-79
2023/11/21 04:03:15;;;;;;;2.83;1.65;;;13.10;91.50;;;;;;5014663;28;20032;-79
2023/11/21 04:05:41;;;;;;;3.75;2.03;;;13.10;91.40;;;;;;5014976;28;20555;-79
2023/11/21 04:08:06;;;;;;;3.45;1.90;;;13.20;91.50;;;;;;5014544;28;20045;-79
2023/11/21 04:10:32;;;;;;;3.67;1.88;;;13.20;91.50;;;;;;5014693;28;20029;-80
2023/11/21 04:12:58;;;;;;;4.05;2.10;;;13.10;91.40;;;;;;5014440;28;20517;-80
2023/11/21 04:15:23;;;;;;;3.13;1.80;;;13.10;91.40;;;;;;5032572;28;20036;-79
2023/11/21 04:17:49;;;;;;;4.50;2.03;;;13.10;91.40;;;;;;5014531;28;20033;-79
2023/11/21 04:20:14;;;;;;;3.30;1.88;;;13.10;91.40;;;;;;5014519;28;20411;-80
2023/11/21 04:22:41;;;;;;;2.90;1.70;;;13.10;91.40;;;;;;5032243;28;20395;-79
2023/11/21 04:25:16;;;;;;;3.70;1.92;;;13.20;91.50;;;;;;5011925;28;20208;-80
2023/11/21 04:27:45;;;;;;;3.28;1.77;;;13.20;91.50;;;;;;5014047;28;20123;-79
2023/11/21 04:30:11;;;;;;;4.30;1.90;;;13.10;91.40;;;;;;5015235;28;20044;-82
2023/11/21 04:32:37;;;;;;;3.40;1.77;;;13.10;91.40;;;;;;5018112;28;20093;-81
2023/11/21 04:35:03;;;;;;;3.95;2.00;;;13.10;91.40;;;;;;5017311;28;20120;-80
2023/11/21 04:37:29;;;;;;;4.25;1.90;;;13.10;91.40;;;;;;5017156;28;20036;-81
2023/11/21 04:39:55;;;;;;;3.42;1.75;;;13.10;91.50;;;;;;5033860;28;20144;-79
2023/11/21 04:42:20;;;;;;;3.78;1.90;;;13.10;91.50;;;;;;5034730;28;20391;-80
2023/11/21 04:44:47;;;;;;;3.22;1.75;;;13.10;91.50;;;;;;5034018;28;20059;-79
2023/11/21 04:47:12;;;;;;;3.65;2.00;;;13.10;91.50;;;;;;5034720;28;20101;-80
2023/11/21 04:49:43;;;;;;;3.25;1.70;;;13.10;91.40;;;;;;5033647;28;20487;-81
2023/11/21 04:52:09;;;;;;;4.22;1.80;;;13.10;91.40;;;;;;5034556;28;20749;-81
2023/11/21 04:54:35;;;;;;;3.58;1.75;;;13.20;91.50;;;;;;5033343;28;20391;-81
2023/11/21 04:57:01;;;;;;;3.05;1.60;;;13.20;91.50;;;;;;5015638;28;20029;-81
2023/11/21 04:59:27;;;;;;;3.75;1.67;;;13.10;91.40;;;;;;5031477;28;20029;-81
2023/11/21 05:01:53;;;;;;;3.03;1.70;;;13.20;91.50;;;;;;5033217;28;20034;-81
2023/11/21 05:04:20;;;;;;;3.30;1.80;;;13.20;91.50;;;;;;5015191;28;20515;-80
2023/11/21 05:06:46;;;;;;;4.63;2.13;;;13.10;91.50;;;;;;5015549;28;20060;-80
2023/11/21 05:09:12;;;;;;;2.75;1.67;;;13.10;91.40;;;;;;5031565;28;20471;-80
2023/11/21 05:11:38;;;;;;;3.97;2.03;;;13.10;91.50;;;;;;5031746;28;20025;-79
2023/11/21 05:14:05;;;;;;;4.03;1.88;;;13.10;91.50;;;;;;5030851;28;20049;-80
2023/11/21 05:16:31;;;;;;;4.15;1.90;;;13.20;91.50;;;;;;5015181;28;20199;-80
2023/11/21 05:19:00;;;;;;;3.75;1.77;;;13.10;91.50;;;;;;5014414;28;20120;-78
2023/11/21 05:21:35;;;;;;;4.35;2.05;;;13.10;91.40;;;;;;5031984;28;20104;-81
2023/11/21 05:24:01;;;;;;;4.45;2.00;;;13.20;91.50;;;;;;5015462;28;20044;-80
2023/11/21 05:26:27;;;;;;;3.90;1.90;;;13.10;91.50;;;;;;5014652;28;20022;-80
2023/11/21 05:28:53;;;;;;;3.90;1.98;;;13.10;91.50;;;;;;5031608;28;20034;-81
2023/11/21 05:31:19;;;;;;;3.78;1.88;;;13.10;91.50;;;;;;5009527;28;20108;-80
2023/11/21 05:33:44;;;;;;;3.78;1.80;;;13.20;91.50;;;;;;5014784;28;20104;-80
2023/11/21 05:36:10;;;;;;;4.05;2.00;;;13.10;91.50;;;;;;5032567;28;20034;-79
2023/11/21 05:38:36;;;;;;;3.85;1.85;;;13.10;91.50;;;;;;5014658;28;20124;-80
2023/11/21 05:41:03;;;;;;;3.47;1.88;;;13.10;91.50;;;;;;5015018;28;20029;-78
2023/11/21 05:43:30;;;;;;;3.42;1.95;;;13.10;91.50;;;;;;5033104;28;20518;-81
2023/11/21 05:45:56;;;;;;;4.50;2.20;;;13.10;91.50;;;;;;5014895;28;20029;-81
2023/11/21 05:48:21;;;;;;;4.22;2.10;;;13.10;91.40;;;;;;5032365;28;20036;-81
2023/11/21 05:50:50;;;;;;;4.18;2.00;;;13.10;91.50;;;;;;5015225;28;20057;-81
2023/11/21 05:53:16;;;;;;;4.07;2.08;;;13.10;91.50;;;;;;5014472;28;20033;-79
2023/11/21 05:55:42;;;;;;;4.20;2.03;;;13.10;91.50;;;;;;5014613;28;20116;-80
2023/11/21 05:58:08;;;;;;;3.47;1.83;;;13.20;91.50;;;;;;5014741;28;20109;-80
2023/11/21 06:00:34;;;;;;;3.58;1.85;;;13.20;91.50;;;;;;5006890;28;20075;-81
2023/11/21 06:02:59;;;;;;;3.47;1.58;;;13.20;91.50;;;;;;5014648;28;20761;-79
2023/11/21 06:05:26;;;;;;;3.60;1.98;;;13.10;91.50;;;;;;5014480;28;20041;-80
2023/11/21 06:07:53;;;;;;;3.85;2.00;;;13.10;91.50;;;;;;5014388;28;20853;-80
2023/11/21 06:10:20;;;;;;;3.63;1.77;;;13.20;91.50;;;;;;5032752;28;20026;-80
2023/11/21 06:12:46;;;;;;;3.53;1.92;;;13.10;91.50;;;;;;5014294;28;20025;-81
2023/11/21 06:15:15;;;;;;;3.60;1.85;;;13.10;91.50;;;;;;5031833;28;20596;-80
2023/11/21 06:17:41;;;;;;;3.95;1.95;;;13.10;91.50;;;;;;5013524;28;20033;-79
2023/11/21 06:20:13;;;;;;;4.32;2.10;;;13.10;91.40;;;;;;5013087;28;20040;-78
2023/11/21 06:22:40;;;;;;;4.57;2.00;;;13.10;91.50;;;;;;5013542;28;20025;-80
2023/11/21 06:25:07;;;;;;;7.53;3.85;;;13.10;91.50;;;;;;5014372;28;20025;-82
2023/11/21 06:27:34;;;;;;;7.95;3.53;;;13.10;91.50;;;;;;5013973;28;20037;-80
2023/11/21 06:30:00;;;;;;;5.40;2.47;;;13.10;91.40;;;;;;5013748;28;20400;-79
2023/11/21 06:32:26;;;;;;;4.22;2.20;;;13.20;91.50;;;;;;5033655;28;20051;-79
2023/11/21 06:34:54;;;;;;;5.10;2.38;;;13.20;91.50;;;;;;5016198;28;20121;-76
2023/11/21 06:37:21;;;;;;;5.20;2.45;;;13.20;91.50;;;;;;5015894;28;20108;-79
2023/11/21 06:39:46;;;;;;;5.20;2.40;;;13.10;91.50;;;;;;5033471;28;20021;-79
2023/11/21 06:42:12;;;;;;;4.80;2.40;;;13.10;91.50;;;;;;5015157;28;20021;-79
2023/11/21 06:44:39;;;;;;;5.20;2.50;;;13.20;91.50;;;;;;5033208;28;20022;-80
2023/11/21 06:47:04;;;;;;;5.93;2.88;;;13.20;91.70;;;;;;5015228;28;20067;-79
2023/11/21 06:49:31;;;;;;;5.35;2.55;;;13.20;91.50;;;;;;5014957;28;20029;-80
2023/11/21 06:51:57;;;;;;;5.35;2.72;;;13.10;91.40;;;;;;5015888;28;20022;-79
2023/11/21 06:54:22;;;;;;;5.32;2.60;;;13.10;91.40;;;;;;5015712;28;20022;-79
2023/11/21 06:56:48;;;;;;;5.10;2.30;;;13.10;91.40;;;;;;5015389;28;20033;-79
2023/11/21 06:59:13;;;;;;;6.00;2.83;;;13.10;91.40;;;;;;5015516;28;20411;-79
2023/11/21 07:01:41;;;;;;;5.15;2.67;;;13.10;91.50;;;;;;5033104;28;20029;-80
2023/11/21 07:04:07;;;;;;;4.85;2.40;;;13.10;91.50;;;;;;5031684;28;20028;-79
2023/11/21 07:06:32;;;;;;;6.10;2.70;;;13.10;91.40;;;;;;5015270;28;20021;-80
2023/11/21 07:08:58;;;;;;;6.18;2.75;;;13.10;91.50;;;;;;5015815;28;20096;-80
2023/11/21 07:11:24;;;;;;;5.18;2.72;;;13.10;91.50;;;;;;5015226;28;20415;-79
2023/11/21 07:13:50;;;;;;;5.30;2.70;;;13.10;91.50;;;;;;5015254;28;20032;-79
2023/11/21 07:16:16;;;;;;;6.97;2.67;;;13.10;91.50;;;;;;5033007;28;20465;-79
2023/11/21 07:18:41;;;;;;;5.72;2.53;;;13.10;91.70;;;;;;5015229;28;20044;-80
2023/11/21 07:21:08;;;;;;;6.53;2.80;;;13.10;91.50;;;;;;5015372;28;20112;-79
2023/11/21 07:23:34;;;;;;;5.78;2.80;;;13.10;91.50;;;;;;5023507;28;20018;-80
2023/11/21 07:25:59;;;;;;;5.13;2.72;;;13.10;91.50;;;;;;5015229;28;20018;-79
2023/11/21 07:28:25;;;;;;;5.70;2.92;;;13.10;91.50;;;;;;5032494;28;20033;-79
2023/11/21 07:30:51;;;;;;;5.88;3.00;;;13.10;91.50;;;;;;5015246;28;20021;-79
2023/11/21 07:33:17;;;;;;;5.07;2.55;;;13.10;91.50;;;;;;5014724;28;20072;-79
2023/11/21 07:35:43;;;;;;;5.63;2.70;;;13.10;91.50;;;;;;5014592;28;20064;-79
2023/11/21 07:38:08;;;;;;;6.53;3.08;;;13.10;91.50;;;;;;5014631;28;20400;-79
2023/11/21 07:40:34;;;;;;;5.07;2.67;;;13.10;91.50;;;;;;5015194;28;20160;-79
2023/11/21 07:42:59;;;;;;;5.57;2.78;;;13.10;91.50;;;;;;5014967;28;20084;-80
2023/11/21 07:45:27;;;;;;;6.32;3.13;;;13.10;91.50;;;;;;5015010;28;20128;-79
2023/11/21 07:47:53;;;;;;;5.53;2.85;;;13.10;91.50;;;;;;5032506;28;20048;-79
2023/11/21 07:50:20;;;;;;;5.30;2.72;;;13.10;91.50;;;;;;5032504;28;20018;-79
2023/11/21 07:52:45;;;;;;;6.55;2.92;;;13.10;91.50;;;;;;5032174;28;20072;-79
2023/11/21 07:55:11;;;;;;;5.72;2.90;;;13.20;91.50;;;;;;5032588;28;20045;-79
2023/11/21 07:57:37;;;;;;;5.65;2.92;;;13.10;91.50;;;;;;5031906;28;20017;-79
2023/11/21 08:00:06;;;;;;;6.45;3.20;;;13.10;91.50;;;;;;5016215;28;20045;-79
2023/11/21 08:02:32;;;;;;;5.53;2.97;;;13.10;91.50;;;;;;5019001;28;20058;-80
2023/11/21 08:04:57;;;;;;;6.00;3.17;;;13.10;91.50;;;;;;5036474;28;20026;-79
2023/11/21 08:07:23;;;;;;;6.00;2.78;;;13.10;91.50;;;;;;5035232;28;20061;-79
2023/11/21 08:09:49;;;;;;;6.55;2.92;;;13.20;91.50;;;;;;5035215;28;20017;-80
2023/11/21 08:12:15;;;;;;;5.78;2.90;;;13.10;91.50;;;;;;5035501;28;20116;-79
2023/11/21 08:14:41;;;;;;;6.50;3.20;;;13.10;91.50;;;;;;5035156;28;20071;-79
2023/11/21 08:17:06;;;;;;;5.43;2.60;;;13.10;91.50;;;;;;5034855;28;20438;-79
2023/11/21 08:19:32;;;;;;;6.70;3.13;;;13.10;91.50;;;;;;5034577;28;20025;-79
2023/11/21 08:21:59;;;;;;;6.28;3.03;;;13.10;91.50;;;;;;5036121;28;20040;-79
2023/11/21 08:24:24;;;;;;;6.75;3.33;;;13.10;91.50;;;;;;5034908;28;20055;-79
2023/11/21 08:26:52;;;;;;;6.00;3.08;;;13.10;91.50;;;;;;5034477;28;20479;-79
2023/11/21 08:29:18;;;;;;;5.72;2.90;;;13.20;91.50;;;;;;5036083;28;20555;-79
2023/11/21 08:31:46;;;;;;;5.95;2.95;;;13.10;91.50;;;;;;5034779;28;20053;-79
2023/11/21 08:34:12;;;;;;;5.53;3.33;;;13.10;91.50;;;;;;5034745;28;20116;-79
2023/11/21 08:36:45;;;;;;;6.13;2.88;;;13.20;91.50;;;;;;5018102;28;20426;-80
2023/11/21 08:39:11;;;;;;;5.90;3.00;;;13.20;91.50;;;;;;5034494;28;20120;-80
2023/11/21 08:41:36;;;;;;;5.75;2.70;;;13.10;91.50;;;;;;5034723;28;20474;-79
2023/11/21 08:44:02;;;;;;;5.57;3.10;;;13.10;91.50;;;;;;5034645;28;20053;-79
2023/11/21 08:46:27;;;;;;;5.82;2.88;;;13.10;91.50;;;;;;5034548;28;20025;-78
2023/11/21 08:48:53;;;;;;;6.00;3.17;;;13.10;91.50;;;;;;5034281;28;20024;-79
2023/11/21 08:51:19;;;;;;;6.20;3.00;;;13.20;91.50;;;;;;5034438;28;20033;-78
2023/11/21 08:53:44;;;;;;;5.32;2.75;;;13.10;91.50;;;;;;5035266;28;20029;-79
2023/11/21 08:56:16;;;;;;;6.65;3.10;;;13.10;91.50;;;;;;5034418;28;20396;-79
2023/11/21 08:58:42;;;;;;;5.70;3.03;;;13.10;91.50;;;;;;5017482;28;20032;-79
2023/11/21 09:01:07;;;;;;;5.15;2.80;;;13.10;91.50;;;;;;5034610;28;20022;-79
2023/11/21 09:03:34;;;;;;;7.05;3.20;;;13.10;91.50;;;;;;5035386;28;20538;-79
2023/11/21 09:06:00;;;;;;;5.63;3.00;;;13.10;91.50;;;;;;5035439;28;20021;-81
2023/11/21 09:08:25;;;;;;;5.72;2.85;;;13.10;91.50;;;;;;5033846;28;20026;-79
2023/11/21 09:10:51;;;;;;;5.93;3.20;;;13.10;91.50;;;;;;5033822;28;20033;-79
2023/11/21 09:13:17;;;;;;;6.60;3.25;;;13.10;91.50;;;;;;5033669;28;20027;-79
2023/11/21 09:15:46;;;;;;;6.10;3.08;;;13.10;91.50;;;;;;5034051;28;20025;-79
2023/11/21 09:18:13;;;;;;;6.10;2.92;;;13.10;91.50;;;;;;5033657;28;20033;-79
2023/11/21 09:20:38;;;;;;;7.10;3.20;;;13.10;91.50;;;;;;5017503;28;20025;-79
2023/11/21 09:23:04;;;;;;;5.70;3.00;;;13.10;91.50;;;;;;5034137;28;20446;-79
2023/11/21 09:25:29;;;;;;;6.32;3.13;;;13.10;91.50;;;;;;5033934;28;20051;-79
2023/11/21 09:27:57;;;;;;;5.78;3.03;;;13.10;91.50;;;;;;5033554;28;20043;-80
2023/11/21 09:30:24;;;;;;;6.18;3.15;;;13.10;91.50;;;;;;5033799;28;20021;-79
2023/11/21 09:32:50;;;;;;;6.60;3.58;;;13.10;91.50;;;;;;5033647;28;20034;-80
2023/11/21 09:35:17;;;;;;;6.15;3.17;;;13.20;91.50;;;;;;5017146;28;20078;-80
2023/11/21 09:37:45;;;;;;;5.28;2.75;;;13.10;91.50;;;;;;5033543;28;20049;-79
2023/11/21 09:40:13;;;;;;;6.10;3.10;;;13.10;91.50;;;;;;5017156;28;20036;-79
2023/11/21 09:42:43;;;;;;;5.68;3.00;;;13.10;91.50;;;;;;5016854;28;20614;-80
2023/11/21 09:45:28;;;;;;;5.50;3.20;;;13.10;91.50;;;;;;5016799;28;20518;-79
2023/11/21 09:47:58;;;;;;;5.53;2.85;;;13.10;91.50;;;;;;5016667;28;20025;-79
2023/11/21 09:50:26;;;;;;;6.18;3.10;;;13.10;91.50;;;;;;5016822;28;20031;-79
2023/11/21 09:53:04;;;;;;;5.70;3.10;;;13.10;91.50;;;;;;5034303;28;20018;-80
2023/11/21 09:55:35;;;;;;;5.57;2.90;;;13.10;91.50;;;;;;5016826;28;20029;-80
2023/11/21 09:58:03;;;;;;;5.38;2.80;;;13.10;91.50;;;;;;5032929;28;20087;-78
2023/11/21 10:00:31;;;;;;;6.22;3.15;;;13.10;91.50;;;;;;5016884;28;20116;-79
2023/11/21 10:02:58;;;;;;;5.57;2.72;;;13.10;91.50;;;;;;5034584;28;20104;-78
2023/11/21 10:05:24;;;;;;;5.28;2.83;;;13.10;91.50;;;;;;5016479;28;20025;-79
2023/11/21 10:07:55;;;;;;;6.35;3.17;;;13.10;91.50;;;;;;5033920;28;20776;-79
2023/11/21 10:10:21;;;;;;;5.88;3.20;;;13.10;91.50;;;;;;5016367;28;20036;-79
2023/11/21 10:12:53;;;;;;;4.75;2.67;;;13.10;91.50;;;;;;5033979;28;20476;-79
2023/11/21 10:15:23;;;;;;;5.60;3.00;;;13.10;91.50;;;;;;5016311;28;20391;-79
2023/11/21 10:17:53;;;;;;;5.70;2.92;;;13.10;91.50;;;;;;5015981;28;20053;-80
2023/11/21 10:20:24;;;;;;;5.88;2.80;;;13.10;91.50;;;;;;5016360;28;20032;-79
2023/11/21 10:22:50;;;;;;;5.15;3.00;;;13.10;91.50;;;;;;5033402;28;20395;-79
2023/11/21 10:25:16;;;;;;;6.60;3.20;;;13.10;91.50;;;;;;5032248;28;20032;-79
2023/11/21 10:27:42;;;;;;;6.25;3.17;;;13.10;91.50;;;;;;5032289;28;20511;-80
2023/11/21 10:30:11;;;;;;;5.35;2.80;;;13.10;91.50;;;;;;5032551;28;20021;-79
2023/11/21 10:32:38;;;;;;;5.43;2.85;;;13.10;91.50;;;;;;5015591;28;20044;-79
2023/11/21 10:35:09;;;;;;;5.68;3.10;;;13.10;91.80;;;;;;5033541;28;20522;-80
2023/11/21 10:37:36;;;;;;;;;;;13.10;91.50;;;;;;5033848;28;20539;-79
2023/11/21 10:40:02;;;;;;;5.70;2.85;;;13.10;91.50;;;;;;5016156;28;20375;-80
2023/11/21 10:42:27;;;;;;;5.70;2.90;;;13.10;91.50;;;;;;5033569;28;20044;-79
2023/11/21 10:44:54;;;;;;;5.38;2.85;;;13.10;91.50;;;;;;5032389;28;20026;-79
2023/11/21 10:47:20;;;;;;;6.13;3.22;;;13.10;91.50;;;;;;5015479;28;20087;-79
2023/11/21 10:49:49;;;;;;;5.30;2.63;;;13.10;91.50;;;;;;5032136;28;20032;-79
2023/11/21 10:52:17;;;;;;;5.60;2.75;;;13.10;91.50;;;;;;5015055;28;20024;-79
2023/11/21 10:54:43;;;;;;;5.60;2.85;;;13.20;91.50;;;;;;5032059;28;20487;-80
2023/11/21 10:57:10;;;;;;;5.60;2.80;;;13.10;91.50;;;;;;5015433;28;20083;-79
2023/11/21 10:59:36;;;;;;;5.40;2.67;;;13.10;91.50;;;;;;5033240;28;20047;-79
2023/11/21 11:02:22;;;;;;;5.97;2.90;;;13.10;91.70;;;;;;5031994;28;20132;-81
2023/11/21 11:04:49;;;;;;;5.55;2.83;;;13.10;91.50;;;;;;5033005;28;20029;-79
2023/11/21 11:07:17;;;;;;;5.07;2.60;;;13.00;91.50;;;;;;5015341;28;20044;-79
2023/11/21 11:09:44;;;;;;;5.22;2.60;;;13.10;91.50;;;;;;5033254;28;20056;-79
2023/11/21 11:12:10;;;;;;;5.88;3.17;;;13.10;91.50;;;;;;5033202;28;20048;-79
2023/11/21 11:14:36;;;;;;;6.25;3.05;;;13.10;91.50;;;;;;5032896;28;20104;-79
2023/11/21 11:17:02;;;;;;;4.57;2.60;;;13.10;91.50;;;;;;5015371;28;20411;-79
2023/11/21 11:19:28;;;;;;;4.85;2.65;;;13.10;91.50;;;;;;5032880;28;20120;-79
2023/11/21 11:22:12;;;;;;;5.60;2.80;;;13.10;91.50;;;;;;5031554;28;20079;-79
2023/11/21 11:25:05;;;;;;;5.00;2.65;;;13.20;91.50;;;;;;5015258;28;20034;-79
2023/11/21 11:28:01;;;;;;;4.80;2.70;;;13.10;91.50;;;;;;5014763;28;20059;-80
2023/11/21 11:30:45;;;;;;;5.07;2.53;;;13.10;91.50;;;;;;5015042;28;20017;-79
2023/11/21 11:33:25;;;;;;;5.43;3.00;;;13.10;91.50;;;;;;5032697;28;20025;-79
2023/11/21 11:36:04;;;;;;;5.68;2.80;;;13.10;91.50;;;;;;5032642;28;20061;-80
2023/11/21 11:38:33;;;;;;;4.93;2.60;;;13.10;91.50;;;;;;5014794;28;20408;-80
2023/11/21 11:41:05;;;;;;;5.18;2.85;;;13.10;91.50;;;;;;5015180;28;20029;-79
2023/11/21 11:43:43;;;;;;;5.85;2.83;;;13.10;91.50;;;;;;5015051;28;20029;-80
2023/11/21 11:46:10;;;;;;;5.32;2.85;;;13.10;91.50;;;;;;5015503;28;20038;-79
2023/11/21 11:48:39;;;;;;;5.45;2.70;;;13.10;91.50;;;;;;5014699;28;20025;-81
2023/11/21 11:51:14;;;;;;;5.18;2.75;;;13.20;91.50;;;;;;5015015;28;20067;-79
2023/11/21 11:53:45;;;;;;;5.43;3.00;;;13.10;91.50;;;;;;5014848;28;20550;-79
2023/11/21 11:56:33;;;;;;;5.63;2.90;;;13.10;91.50;;;;;;5032520;28;20104;-79
2023/11/21 11:59:02;;;;;;;4.97;2.63;;;13.10;91.50;;;;;;5015064;28;20064;-79
2023/11/21 12:01:32;;;;;;;5.07;2.60;;;13.10;91.50;;;;;;5014942;28;20021;-79
2023/11/21 12:04:30;;;;;;;4.43;2.30;;;13.10;91.50;;;;;;5014910;28;20064;-79
2023/11/21 12:06:59;;;;;;;5.43;2.67;;;13.10;91.50;;;;;;5032569;28;20049;-80
2023/11/21 12:09:26;;;;;;;5.82;2.95;;;13.10;91.50;;;;;;5014668;28;20401;-79
2023/11/21 12:11:53;;;;;;;5.00;2.80;;;13.10;91.50;;;;;;5031341;28;20025;-79
2023/11/21 12:14:18;;;;;;;4.50;2.47;;;13.10;91.50;;;;;;5014596;28;20054;-79
2023/11/21 12:16:45;;;;;;;5.10;2.63;;;13.10;91.50;;;;;;5030853;28;20475;-79
2023/11/21 12:19:12;;;;;;;4.97;2.60;;;13.10;91.50;;;;;;5014455;28;20133;-80
2023/11/21 12:21:38;;;;;;;4.90;2.70;;;13.10;91.50;;;;;;5030954;28;20029;-80
2023/11/21 12:24:08;;;;;;;5.53;2.70;;;13.10;91.50;;;;;;5014532;28;20602;-79
2023/11/21 12:26:34;;;;;;;4.75;2.58;;;13.10;91.80;;;;;;5014570;28;20030;-79
2023/11/21 12:29:01;;;;;;;4.82;2.60;;;13.10;91.50;;;;;;5030893;28;20582;-80
2023/11/21 12:31:28;;;;;;;5.03;2.70;;;13.10;91.50;;;;;;5031330;28;20021;-80
2023/11/21 12:33:54;;;;;;;6.10;3.05;;;13.10;91.50;;;;;;5014337;28;20036;-79
2023/11/21 12:36:19;;;;;;;5.40;2.63;;;13.10;91.50;;;;;;5031063;28;20017;-78
2023/11/21 12:38:45;;;;;;;5.18;2.67;;;13.10;91.50;;;;;;5030762;28;20071;-79
2023/11/21 12:41:11;;;;;;;4.97;2.50;;;13.10;91.50;;;;;;5030711;28;20152;-79
2023/11/21 12:43:38;;;;;;;5.00;2.70;;;13.10;91.50;;;;;;5030998;28;20017;-79
2023/11/21 12:46:10;;;;;;;4.25;2.40;;;13.10;91.50;;;;;;5030759;28;20026;-79
2023/11/21 12:48:43;;;;;;;4.43;2.55;;;13.10;91.50;;;;;;5035588;28;20021;-79